Time;durP1;ratioP1;P1;durP2;ratioP2;P2;SDS_P1;SDS_P2;PMS_P1;PMS_P2;Temp;Humidity;BMP_temperature;BMP_pressure;BME280_temperature;BME280_humidity;BME280_pressure;Samples;Min_cycle;Max_cycle;Signal;HPM_P1;HPM_P2
2021/03/04 00:00:16;;;;;;;138.62;103.90;;;20.00;45.70;;;;;;4741031;55;21015;-24
2021/03/04 00:05:17;;;;;;;140.40;106.95;;;20.00;45.70;;;;;;4763370;55;21571;-22
2021/03/04 00:10:20;;;;;;;141.23;104.90;;;20.00;45.70;;;;;;4740904;55;21033;-23
2021/03/04 00:15:24;;;;;;;139.52;104.00;;;20.00;45.60;;;;;;4740761;55;21049;-23
2021/03/04 00:20:28;;;;;;;138.50;106.00;;;20.00;45.60;;;;;;4776131;55;21010;-22
2021/03/04 00:25:33;;;;;;;137.02;105.75;;;20.00;45.60;;;;;;4746322;55;21041;-22
2021/03/04 00:30:34;;;;;;;136.23;101.12;;;20.00;45.50;;;;;;4748730;55;21077;-23
2021/03/04 00:35:34;;;;;;;136.85;104.12;;;20.00;45.50;;;;;;4740083;54;21495;-23
2021/03/04 00:40:35;;;;;;;135.32;102.32;;;20.00;45.50;;;;;;4750654;54;22280;-24
2021/03/04 00:45:36;;;;;;;136.15;102.85;;;19.90;45.40;;;;;;4788314;54;21276;-23
2021/03/04 00:50:40;;;;;;;141.30;105.18;;;19.90;45.40;;;;;;4739151;54;21009;-23
2021/03/04 00:55:42;;;;;;;134.80;101.97;;;20.00;45.40;;;;;;4765545;55;21010;-23
2021/03/04 01:00:43;;;;;;;130.27;100.97;;;20.00;45.30;;;;;;4744084;55;21013;-23
2021/03/04 01:05:47;;;;;;;138.43;104.00;;;19.90;45.20;;;;;;4760168;54;21495;-25
2021/03/04 01:10:48;;;;;;;132.45;101.40;;;19.90;45.20;;;;;;4751391;55;21579;-23
2021/03/04 01:15:49;;;;;;;132.77;101.40;;;19.90;45.10;;;;;;4764482;55;21041;-23
2021/03/04 01:20:50;;;;;;;133.10;101.80;;;19.90;45.10;;;;;;4756585;55;21010;-23
2021/03/04 01:25:51;;;;;;;131.52;98.82;;;19.90;45.10;;;;;;4755999;55;21723;-22
2021/03/04 01:30:52;;;;;;;128.93;97.35;;;19.90;45.10;;;;;;4788596;54;21010;-23
2021/03/04 01:35:52;;;;;;;131.32;98.97;;;19.90;45.00;;;;;;4761736;55;20998;-24
2021/03/04 01:40:54;;;;;;;126.93;95.25;;;19.90;45.00;;;;;;4775185;54;21590;-23
2021/03/04 01:45:54;;;;;;;128.20;96.35;;;19.90;45.00;;;;;;4759638;54;21062;-23
2021/03/04 01:50:56;;;;;;;127.55;97.00;;;19.90;44.90;;;;;;4750309;54;21021;-23
2021/03/04 01:56:01;;;;;;;123.10;91.68;;;19.90;44.90;;;;;;4753947;55;21025;-23
2021/03/04 02:01:02;;;;;;;122.87;94.57;;;19.90;44.90;;;;;;4739735;58;21614;-22
2021/03/04 02:06:06;;;;;;;121.75;93.97;;;19.90;44.80;;;;;;4762375;55;21034;-24
2021/03/04 02:11:19;;;;;;;124.43;93.78;;;19.90;44.90;;;;;;4762993;55;21020;-23
2021/03/04 02:16:30;;;;;;;122.30;91.65;;;19.90;44.80;;;;;;4739085;58;21038;-23
2021/03/04 02:25:30;;;;;;;125.10;96.60;;;19.90;44.80;;;;;;4739987;55;21053;-23
2021/03/04 02:30:36;;;;;;;121.80;93.70;;;19.90;44.70;;;;;;4788737;55;21613;-22
2021/03/04 02:35:38;;;;;;;120.15;90.20;;;19.90;44.70;;;;;;4784569;55;21017;-24
2021/03/04 02:40:41;;;;;;;122.43;93.30;;;19.90;44.60;;;;;;4768801;55;21022;-22
2021/03/04 02:45:43;;;;;;;117.87;89.65;;;19.90;44.60;;;;;;4751943;55;21022;-22
2021/03/04 02:50:45;;;;;;;115.93;88.30;;;19.90;44.50;;;;;;4744436;55;21121;-23
2021/03/04 02:55:48;;;;;;;115.62;88.25;;;19.90;44.50;;;;;;4747635;55;21029;-23
2021/03/04 03:00:49;;;;;;;116.43;88.68;;;19.90;44.50;;;;;;4775378;55;21009;-24
2021/03/04 03:05:51;;;;;;;115.20;88.65;;;19.90;44.50;;;;;;4744148;55;21116;-24
2021/03/04 03:10:52;;;;;;;120.90;91.35;;;19.90;44.40;;;;;;4771523;55;21014;-24
2021/03/04 03:15:53;;;;;;;111.00;81.10;;;19.90;44.40;;;;;;4765758;55;21086;-20
2021/03/04 03:20:54;;;;;;;112.03;86.43;;;19.90;45.10;;;;;;4761546;55;21551;-23
2021/03/04 03:25:55;;;;;;;117.97;90.25;;;19.90;44.30;;;;;;4762501;55;21552;-23
2021/03/04 03:30:57;;;;;;;111.45;87.30;;;19.90;44.30;;;;;;4743286;55;21014;-23
2021/03/04 03:35:58;;;;;;;114.43;86.53;;;19.90;44.30;;;;;;4744709;55;21005;-25
2021/03/04 03:40:59;;;;;;;108.37;85.62;;;19.90;44.20;;;;;;4739341;58;21069;-23
2021/03/04 03:46:01;;;;;;;113.43;83.93;;;19.90;44.20;;;;;;4743927;55;21081;-22
2021/03/04 03:51:02;;;;;;;103.40;78.65;;;19.90;44.20;;;;;;4740371;58;21066;-24
2021/03/04 03:56:04;;;;;;;102.82;79.15;;;19.90;44.20;;;;;;4739978;58;21038;-24
2021/03/04 04:01:07;;;;;;;112.25;84.13;;;19.90;44.10;;;;;;4768265;55;21042;-24
2021/03/04 04:06:11;;;;;;;105.12;80.28;;;19.90;44.10;;;;;;4749241;55;21101;-24
2021/03/04 04:11:12;;;;;;;104.40;80.70;;;19.90;44.10;;;;;;4747369;55;21013;-23
2021/03/04 04:16:14;;;;;;;105.87;78.62;;;19.80;44.00;;;;;;4739565;58;21029;-24
2021/03/04 04:21:16;;;;;;;101.47;78.53;;;19.90;44.00;;;;;;4752415;55;21074;-23
2021/03/04 04:26:18;;;;;;;106.10;80.65;;;19.90;44.00;;;;;;4784932;55;21074;-23
2021/03/04 04:31:20;;;;;;;102.38;78.22;;;19.90;44.00;;;;;;4739810;58;21084;-23
2021/03/04 04:36:21;;;;;;;102.62;78.95;;;19.90;43.90;;;;;;4740262;58;21049;-21
2021/03/04 04:41:23;;;;;;;101.62;79.30;;;19.80;43.80;;;;;;4739573;58;21001;-23
2021/03/04 04:46:27;;;;;;;103.78;79.00;;;19.90;43.80;;;;;;4749633;55;21121;-23
2021/03/04 04:51:32;;;;;;;99.35;75.75;;;19.80;43.90;;;;;;4757293;55;21038;-23
2021/03/04 04:56:33;;;;;;;96.18;75.05;;;19.80;43.80;;;;;;4752811;55;22086;-24
2021/03/04 05:01:34;;;;;;;98.97;74.93;;;19.80;43.80;;;;;;4744278;54;21050;-23
2021/03/04 05:06:34;;;;;;;99.65;75.00;;;19.90;43.80;;;;;;4743430;55;21487;-23
2021/03/04 05:11:35;;;;;;;98.90;74.65;;;19.80;43.80;;;;;;4754419;55;21009;-23
2021/03/04 05:16:37;;;;;;;98.10;75.12;;;19.80;43.70;;;;;;4740458;58;21107;-23
2021/03/04 05:21:38;;;;;;;94.15;72.10;;;19.80;43.80;;;;;;4748422;54;21013;-23
2021/03/04 05:26:39;;;;;;;97.72;73.50;;;19.80;43.80;;;;;;4739549;54;21495;-24
2021/03/04 05:31:40;;;;;;;93.53;71.55;;;19.80;43.80;;;;;;4763865;54;21011;-25
2021/03/04 05:36:41;;;;;;;90.18;68.65;;;19.80;43.80;;;;;;4744392;55;21053;-23
2021/03/04 05:41:43;;;;;;;92.37;71.87;;;19.80;43.80;;;;;;4762128;54;21851;-24
2021/03/04 05:46:46;;;;;;;94.47;73.05;;;19.80;43.80;;;;;;4754979;55;21013;-23
2021/03/04 05:51:52;;;;;;;90.82;71.62;;;19.80;43.80;;;;;;4761883;55;22218;-23
2021/03/04 05:56:55;;;;;;;95.45;72.50;;;19.80;43.80;;;;;;4746502;55;21002;-23
2021/03/04 06:01:57;;;;;;;90.30;69.47;;;19.80;43.80;;;;;;4756530;55;21037;-24
2021/03/04 06:06:58;;;;;;;90.32;69.70;;;19.80;43.80;;;;;;4744969;55;21105;-23
2021/03/04 06:12:04;;;;;;;88.65;70.82;;;19.80;44.00;;;;;;4754660;54;21472;-24
2021/03/04 06:17:12;;;;;;;89.10;68.97;;;19.80;44.00;;;;;;4771709;55;21057;-26
2021/03/04 06:22:21;;;;;;;89.95;69.60;;;19.80;44.20;;;;;;4755386;55;21029;-24
2021/03/04 06:27:33;;;;;;;87.05;68.82;;;19.80;44.20;;;;;;4794132;55;21041;-23
2021/03/04 06:32:34;;;;;;;88.20;66.25;;;19.80;44.20;;;;;;4755773;55;21100;-23
2021/03/04 06:37:42;;;;;;;93.20;68.97;;;19.80;44.40;;;;;;4739662;58;21351;-23
2021/03/04 06:42:45;;;;;;;84.70;66.07;;;19.90;44.30;;;;;;4751521;55;21001;-24
2021/03/04 06:47:45;;;;;;;89.68;67.18;;;19.80;44.20;;;;;;4761788;55;21037;-22
2021/03/04 06:52:46;;;;;;;88.57;68.05;;;19.80;44.70;;;;;;4739844;54;21508;-22
2021/03/04 06:57:59;;;;;;;86.10;67.80;;;19.80;44.20;;;;;;4740327;58;21155;-24
2021/03/04 07:03:00;;;;;;;88.40;67.00;;;19.80;44.20;;;;;;4773692;55;21014;-24
2021/03/04 07:08:01;;;;;;;86.70;66.68;;;19.80;44.20;;;;;;4740097;55;21042;-23
2021/03/04 07:13:02;;;;;;;91.18;70.20;;;19.80;44.20;;;;;;4744638;55;21034;-23
2021/03/04 07:18:03;;;;;;;94.03;72.75;;;19.80;44.80;;;;;;4751236;54;21076;-23
2021/03/04 07:23:05;;;;;;;91.75;69.30;;;19.80;44.20;;;;;;4749723;55;21124;-25
2021/03/04 07:28:07;;;;;;;89.97;69.78;;;19.80;44.20;;;;;;4755136;55;21021;-25
2021/03/04 07:33:08;;;;;;;93.20;71.62;;;19.80;44.20;;;;;;4744190;55;21014;-24
2021/03/04 07:38:09;;;;;;;90.07;69.95;;;19.80;44.20;;;;;;4801765;55;21507;-25
2021/03/04 07:43:12;;;;;;;91.35;71.87;;;19.80;44.20;;;;;;4749370;55;21009;-25
2021/03/04 07:48:16;;;;;;;91.95;72.28;;;19.80;44.20;;;;;;4739057;58;21507;-24
2021/03/04 07:53:17;;;;;;;94.00;73.97;;;19.80;44.20;;;;;;4781158;55;22411;-25
2021/03/04 07:58:18;;;;;;;90.97;70.65;;;19.80;44.20;;;;;;4741134;55;21054;-24
2021/03/04 08:03:19;;;;;;;98.30;74.95;;;19.80;44.20;;;;;;4739363;58;21017;-26
2021/03/04 08:08:25;;;;;;;94.03;71.30;;;19.80;44.20;;;;;;4741137;55;21030;-25
2021/03/04 08:15:01;;;;;;;91.12;69.53;;;19.90;44.10;;;;;;4827388;54;27966;-26
2021/03/04 08:20:17;;;;;;;97.68;73.25;;;20.00;44.90;;;;;;4819847;53;21026;-26
2021/03/04 08:25:31;;;;;;;90.75;70.62;;;20.00;45.20;;;;;;4854662;54;21071;-25
2021/03/04 08:30:38;;;;;;;93.05;72.72;;;20.10;45.40;;;;;;4799735;54;21023;-22
2021/03/04 08:35:42;;;;;;;96.90;74.33;;;20.10;45.60;;;;;;4817362;54;21951;-24
2021/03/04 08:41:00;;;;;;;95.12;74.60;;;20.20;45.80;;;;;;4803870;54;21481;-24
2021/03/04 08:46:09;;;;;;;95.35;74.45;;;20.20;46.00;;;;;;4798567;58;21094;-22
2021/03/04 08:51:12;;;;;;;97.05;76.50;;;20.20;46.10;;;;;;4815211;54;21634;-27
2021/03/04 08:56:13;;;;;;;101.38;77.40;;;20.20;45.90;;;;;;4828067;54;21473;-25
2021/03/04 09:01:14;;;;;;;102.93;79.82;;;20.10;45.80;;;;;;4797558;58;21560;-24
2021/03/04 09:06:18;;;;;;;99.50;76.97;;;20.20;45.80;;;;;;4796978;58;21505;-27
2021/03/04 09:11:34;;;;;;;97.75;77.72;;;20.20;45.70;;;;;;4818941;54;21107;-25
2021/03/04 09:16:48;;;;;;;103.85;79.72;;;20.20;45.60;;;;;;4830310;54;21120;-23
2021/03/04 09:21:50;;;;;;;104.07;80.55;;;20.20;45.60;;;;;;4820613;54;21422;-24
2021/03/04 09:26:52;;;;;;;103.03;80.47;;;20.20;45.80;;;;;;4815877;54;20994;-25
2021/03/04 09:31:54;;;;;;;106.55;82.70;;;20.30;46.20;;;;;;4793122;54;20995;-22
2021/03/04 09:37:06;;;;;;;104.00;80.03;;;20.40;46.50;;;;;;4832974;54;20999;-24
2021/03/04 09:42:08;;;;;;;106.68;83.03;;;20.40;46.60;;;;;;4799736;54;21074;-25
2021/03/04 09:47:18;;;;;;;103.85;80.28;;;20.50;46.80;;;;;;4793917;54;21011;-23
2021/03/04 09:52:24;;;;;;;108.60;83.82;;;20.50;47.60;;;;;;4829333;54;21222;-22
2021/03/04 09:57:25;;;;;;;108.10;83.95;;;20.50;47.30;;;;;;4823509;54;21046;-26
2021/03/04 10:02:39;;;;;;;106.75;81.07;;;20.60;47.40;;;;;;4834078;54;22059;-24
2021/03/04 10:07:40;;;;;;;111.90;82.97;;;20.60;47.50;;;;;;4804452;54;21533;-24
2021/03/04 10:12:56;;;;;;;111.35;85.72;;;20.60;48.30;;;;;;4803105;54;21074;-24
2021/03/04 10:17:58;;;;;;;106.05;82.15;;;20.60;47.90;;;;;;4803867;54;21493;-22
2021/03/04 10:22:59;;;;;;;111.15;85.70;;;20.70;48.00;;;;;;4819050;54;21165;-23
2021/03/04 10:28:02;;;;;;;109.87;85.40;;;20.70;48.00;;;;;;4800331;54;21099;-25
2021/03/04 10:33:05;;;;;;;115.03;86.18;;;20.70;48.10;;;;;;4822487;54;21498;-21
2021/03/04 10:38:06;;;;;;;106.85;85.05;;;20.80;48.30;;;;;;4811777;54;21051;-25
2021/03/04 10:43:07;;;;;;;113.32;87.93;;;20.80;47.90;;;;;;4818614;54;21477;-24
2021/03/04 10:48:09;;;;;;;108.75;86.28;;;20.80;47.90;;;;;;4795131;54;21011;-21
2021/03/04 10:53:10;;;;;;;116.75;90.12;;;20.80;47.90;;;;;;4818343;54;21090;-22
2021/03/04 10:58:11;;;;;;;113.15;87.35;;;20.80;47.90;;;;;;4806209;54;21517;-24
2021/03/04 11:03:11;;;;;;;114.78;89.37;;;20.80;48.00;;;;;;4794552;54;21078;-23
2021/03/04 11:08:12;;;;;;;112.30;87.97;;;20.80;48.10;;;;;;4793645;54;21075;-22
2021/03/04 11:13:16;;;;;;;111.18;87.30;;;20.80;48.20;;;;;;4797944;54;21063;-25
2021/03/04 11:18:17;;;;;;;113.97;90.85;;;20.80;47.90;;;;;;4813025;54;21095;-24
2021/03/04 11:23:18;;;;;;;114.62;87.95;;;20.80;48.20;;;;;;4805594;54;21032;-25
2021/03/04 11:28:19;;;;;;;113.07;87.10;;;20.80;48.40;;;;;;4815556;54;21149;-24
2021/03/04 11:33:21;;;;;;;106.28;85.72;;;20.90;48.60;;;;;;4820441;54;21147;-25
2021/03/04 11:38:22;;;;;;;111.55;84.70;;;20.90;48.80;;;;;;4810075;54;21548;-21
2021/03/04 11:43:23;;;;;;;113.12;85.40;;;20.90;49.00;;;;;;4824609;54;21103;-24
2021/03/04 11:48:24;;;;;;;105.28;83.12;;;20.90;49.20;;;;;;4811242;54;21019;-26
2021/03/04 11:53:26;;;;;;;114.12;86.00;;;20.90;49.30;;;;;;4803825;54;21637;-24
2021/03/04 11:58:27;;;;;;;111.53;87.68;;;20.90;49.40;;;;;;4823226;54;21533;-25
2021/03/04 12:03:28;;;;;;;109.72;83.37;;;21.00;49.60;;;;;;4818807;54;21086;-23
2021/03/04 12:08:29;;;;;;;108.37;85.35;;;21.00;49.60;;;;;;4825337;54;21118;-22
2021/03/04 12:13:34;;;;;;;105.12;84.22;;;21.00;50.00;;;;;;4795825;54;21465;-24
2021/03/04 12:18:36;;;;;;;102.95;82.65;;;21.10;50.10;;;;;;4804423;54;21622;-21
2021/03/04 12:23:37;;;;;;;104.68;83.78;;;21.10;50.30;;;;;;4823939;54;21054;-23
2021/03/04 12:28:37;;;;;;;112.03;87.50;;;21.10;50.20;;;;;;4795860;54;21353;-27
2021/03/04 12:33:38;;;;;;;108.95;86.18;;;21.00;49.60;;;;;;4792682;58;21015;-23
2021/03/04 12:38:39;;;;;;;104.57;84.47;;;21.00;49.40;;;;;;4805837;54;21015;-24
2021/03/04 12:43:40;;;;;;;108.37;83.32;;;21.00;49.40;;;;;;4803893;54;21059;-23
2021/03/04 12:48:41;;;;;;;107.65;84.60;;;20.90;49.20;;;;;;4793151;58;20979;-22
2021/03/04 12:53:43;;;;;;;106.53;83.90;;;20.90;48.90;;;;;;4799497;54;21103;-22
2021/03/04 12:58:44;;;;;;;103.80;80.70;;;20.90;49.40;;;;;;4799413;54;21422;-22
2021/03/04 13:03:44;;;;;;;103.97;81.53;;;21.00;48.90;;;;;;4804758;54;21007;-22
2021/03/04 13:08:48;;;;;;;106.75;83.85;;;21.00;49.10;;;;;;4827168;54;21520;-25
2021/03/04 13:13:49;;;;;;;106.15;79.82;;;21.00;49.00;;;;;;4793323;58;21485;-24
2021/03/04 13:18:49;;;;;;;104.15;82.97;;;21.00;49.10;;;;;;4805660;54;20975;-22
2021/03/04 13:23:50;;;;;;;103.30;82.45;;;21.10;49.20;;;;;;4823989;54;21011;-24
2021/03/04 13:28:51;;;;;;;105.50;84.70;;;21.10;49.40;;;;;;4805129;54;21082;-22
2021/03/04 13:33:52;;;;;;;101.72;81.78;;;21.10;49.40;;;;;;4806252;54;21524;-25
2021/03/04 13:38:53;;;;;;;100.87;78.90;;;21.10;49.50;;;;;;4809069;54;21442;-22
2021/03/04 13:43:54;;;;;;;99.82;80.18;;;21.10;49.60;;;;;;4823633;54;21003;-26
2021/03/04 13:48:55;;;;;;;103.45;81.25;;;21.10;49.60;;;;;;4830177;54;21133;-24
2021/03/04 13:53:56;;;;;;;100.82;81.18;;;21.10;49.80;;;;;;4810348;54;21059;-23
2021/03/04 13:58:57;;;;;;;104.87;80.10;;;21.10;49.60;;;;;;4826777;54;21755;-25
2021/03/04 14:03:58;;;;;;;101.43;80.85;;;21.10;49.50;;;;;;4802993;54;21094;-22
2021/03/04 14:08:59;;;;;;;99.00;77.53;;;21.10;49.50;;;;;;4790813;58;21107;-23
2021/03/04 14:14:00;;;;;;;101.70;79.55;;;21.10;49.50;;;;;;4792251;58;21083;-21
2021/03/04 14:19:01;;;;;;;95.80;75.80;;;21.10;49.50;;;;;;4795224;54;21095;-24
2021/03/04 14:24:02;;;;;;;98.00;77.43;;;21.10;49.50;;;;;;4805398;54;21094;-25
2021/03/04 14:29:03;;;;;;;99.00;79.10;;;21.10;49.40;;;;;;4797326;54;21012;-21
2021/03/04 14:34:06;;;;;;;94.53;77.22;;;21.10;49.40;;;;;;4792942;58;21103;-25
2021/03/04 14:39:06;;;;;;;98.78;80.60;;;21.10;49.40;;;;;;4797311;54;21525;-23
2021/03/04 14:44:08;;;;;;;94.43;77.97;;;21.10;49.40;;;;;;4804726;54;21079;-25
2021/03/04 14:49:09;;;;;;;100.32;81.68;;;21.10;49.50;;;;;;4792200;58;21050;-21
2021/03/04 14:54:10;;;;;;;99.95;79.37;;;21.10;49.50;;;;;;4791367;58;21536;-22
2021/03/04 14:59:11;;;;;;;100.62;80.20;;;21.10;49.50;;;;;;4802069;54;21019;-25
2021/03/04 15:04:12;;;;;;;99.82;77.85;;;21.10;49.50;;;;;;4803645;54;21003;-28
2021/03/04 15:09:13;;;;;;;99.32;77.12;;;21.10;49.50;;;;;;4814672;54;21079;-24
2021/03/04 15:14:13;;;;;;;95.18;74.55;;;21.10;49.50;;;;;;4792182;55;21039;-23
2021/03/04 15:19:16;;;;;;;93.28;75.65;;;21.10;49.50;;;;;;4793617;55;21123;-23
2021/03/04 15:24:17;;;;;;;92.03;73.65;;;21.10;49.40;;;;;;4808108;54;21504;-25
2021/03/04 15:29:18;;;;;;;93.15;75.72;;;21.10;49.40;;;;;;4821770;54;21030;-21
2021/03/04 15:34:20;;;;;;;87.90;71.78;;;21.10;49.40;;;;;;4830044;54;21166;-24
2021/03/04 15:39:21;;;;;;;94.07;75.78;;;21.10;49.40;;;;;;4802209;54;21186;-24
2021/03/04 15:44:22;;;;;;;95.87;75.28;;;21.10;49.40;;;;;;4802935;54;21588;-22
2021/03/04 15:49:23;;;;;;;94.25;74.15;;;21.10;49.30;;;;;;4793916;58;21438;-23
2021/03/04 15:54:25;;;;;;;95.18;73.82;;;21.10;49.30;;;;;;4814036;54;21035;-22
2021/03/04 15:59:26;;;;;;;96.45;73.72;;;21.10;49.20;;;;;;4808268;54;21561;-24
2021/03/04 16:04:27;;;;;;;89.57;71.10;;;21.10;49.30;;;;;;4829556;54;21031;-21
2021/03/04 16:09:28;;;;;;;88.47;74.22;;;21.10;49.10;;;;;;4807511;54;21043;-25
2021/03/04 16:14:29;;;;;;;86.25;70.80;;;21.00;49.00;;;;;;4804017;54;21110;-27
2021/03/04 16:19:29;;;;;;;90.62;72.53;;;20.90;48.80;;;;;;4796370;54;21102;-22
2021/03/04 16:24:31;;;;;;;87.85;71.78;;;20.90;48.70;;;;;;4796694;54;20995;-22
2021/03/04 16:29:32;;;;;;;94.15;75.15;;;20.90;48.60;;;;;;4810976;54;21082;-22
2021/03/04 16:34:34;;;;;;;89.05;71.12;;;20.80;48.40;;;;;;4793048;58;21588;-25
2021/03/04 16:39:35;;;;;;;88.62;71.75;;;20.80;48.30;;;;;;4830689;54;21023;-24
2021/03/04 16:44:36;;;;;;;89.97;70.75;;;20.80;48.20;;;;;;4800307;54;21546;-23
2021/03/04 16:49:39;;;;;;;95.03;74.43;;;20.70;48.10;;;;;;4803242;54;21474;-23
2021/03/04 16:54:39;;;;;;;93.95;74.82;;;20.70;48.00;;;;;;4792557;58;21078;-22
2021/03/04 16:59:40;;;;;;;86.43;70.20;;;20.70;47.90;;;;;;4802630;54;21067;-22
2021/03/04 17:04:43;;;;;;;92.37;72.82;;;20.70;47.80;;;;;;4817621;54;21493;-21
2021/03/04 17:09:50;;;;;;;96.40;74.87;;;20.60;47.60;;;;;;4798832;54;21047;-23
2021/03/04 17:14:51;;;;;;;95.68;77.15;;;20.60;47.90;;;;;;4820771;54;21550;-24
2021/03/04 17:19:55;;;;;;;100.62;77.05;;;20.60;47.50;;;;;;4838192;54;21126;-22
2021/03/04 17:24:59;;;;;;;102.40;80.72;;;20.60;47.40;;;;;;4793654;58;21969;-23
2021/03/04 17:30:00;;;;;;;97.95;77.95;;;20.60;47.30;;;;;;4836226;54;21130;-22
2021/03/04 17:35:01;;;;;;;96.78;78.93;;;20.60;47.20;;;;;;4793526;58;21023;-22
2021/03/04 17:40:03;;;;;;;102.32;82.10;;;20.60;47.10;;;;;;4806094;54;21012;-21
2021/03/04 17:45:06;;;;;;;102.82;79.65;;;20.60;47.00;;;;;;4804279;54;20999;-25
2021/03/04 17:50:13;;;;;;;102.12;82.15;;;20.60;46.90;;;;;;4814524;54;21128;-25
2021/03/04 17:55:17;;;;;;;110.03;86.28;;;20.60;46.90;;;;;;4817941;54;21477;-24
2021/03/04 18:00:18;;;;;;;102.22;81.40;;;20.50;46.60;;;;;;4803318;54;21098;-22
2021/03/04 18:05:20;;;;;;;107.65;86.53;;;20.50;46.60;;;;;;4838221;54;21039;-22
2021/03/04 18:10:21;;;;;;;109.65;87.72;;;20.50;46.50;;;;;;4829741;54;21345;-27
2021/03/04 18:15:22;;;;;;;117.78;89.82;;;20.50;46.30;;;;;;4827768;54;21976;-21
2021/03/04 18:20:23;;;;;;;113.90;89.03;;;20.50;46.30;;;;;;4793830;58;21031;-20
2021/03/04 18:25:24;;;;;;;118.40;92.57;;;20.50;46.20;;;;;;4795453;54;21027;-22
2021/03/04 18:30:25;;;;;;;117.28;91.10;;;20.50;46.10;;;;;;4809307;54;21465;-27
2021/03/04 18:35:26;;;;;;;122.18;93.65;;;20.50;46.10;;;;;;4814052;54;21007;-25
2021/03/04 18:40:28;;;;;;;116.28;89.37;;;20.50;46.00;;;;;;4799758;54;21012;-24
2021/03/04 18:45:29;;;;;;;124.03;96.85;;;20.50;46.00;;;;;;4801253;54;21078;-21
2021/03/04 18:50:30;;;;;;;127.10;97.28;;;20.40;45.90;;;;;;4807728;54;20999;-25
2021/03/04 18:55:32;;;;;;;132.98;102.15;;;20.40;45.80;;;;;;4802411;54;22172;-23
2021/03/04 19:00:33;;;;;;;134.87;101.18;;;20.50;45.80;;;;;;4842657;54;21751;-24
2021/03/04 19:05:36;;;;;;;129.93;98.15;;;20.40;45.70;;;;;;4812068;54;21047;-26
2021/03/04 19:10:38;;;;;;;139.77;104.25;;;20.40;45.60;;;;;;4814068;54;21481;-21
2021/03/04 19:15:42;;;;;;;136.35;101.87;;;20.40;45.50;;;;;;4806966;54;21051;-24
2021/03/04 19:20:43;;;;;;;139.68;105.78;;;20.40;45.40;;;;;;4811652;54;22144;-21
2021/03/04 19:25:44;;;;;;;142.02;106.65;;;20.40;45.30;;;;;;4864854;54;20999;-22
2021/03/04 19:30:46;;;;;;;140.73;104.90;;;20.40;45.30;;;;;;4802015;54;21011;-22
2021/03/04 19:35:47;;;;;;;137.57;103.30;;;20.40;45.30;;;;;;4798212;54;21039;-19
2021/03/04 19:40:49;;;;;;;141.37;104.93;;;20.40;45.20;;;;;;4794204;58;21612;-24
2021/03/04 19:45:52;;;;;;;138.02;105.30;;;20.40;45.10;;;;;;4794799;54;21485;-25
2021/03/04 19:50:53;;;;;;;141.35;105.43;;;20.40;45.10;;;;;;4876570;54;20999;-23
2021/03/04 19:55:54;;;;;;;146.05;110.10;;;20.40;45.00;;;;;;4797106;54;21595;-22
2021/03/04 20:00:55;;;;;;;139.65;103.95;;;20.40;44.90;;;;;;4797740;54;21047;-24
2021/03/04 20:05:57;;;;;;;142.87;105.10;;;20.40;44.80;;;;;;4815954;54;21039;-19
2021/03/04 20:10:57;;;;;;;142.18;102.62;;;20.40;44.70;;;;;;4820675;54;21011;-24
2021/03/04 20:15:58;;;;;;;143.68;104.87;;;20.40;44.70;;;;;;4794299;58;21011;-27
2021/03/04 20:20:59;;;;;;;138.30;101.68;;;20.40;44.60;;;;;;4798137;54;21019;-23
2021/03/04 20:26:00;;;;;;;149.65;109.12;;;20.40;44.50;;;;;;4801531;54;21047;-22
2021/03/04 20:31:03;;;;;;;147.75;106.05;;;20.40;44.60;;;;;;4853530;54;20991;-23
2021/03/04 20:36:04;;;;;;;147.13;107.15;;;20.40;44.50;;;;;;4819926;54;21457;-20
2021/03/04 20:41:07;;;;;;;146.32;108.20;;;20.30;44.40;;;;;;4825408;54;20987;-24
2021/03/04 20:46:08;;;;;;;144.23;104.95;;;20.30;44.40;;;;;;4794591;58;21010;-22
2021/03/04 20:51:09;;;;;;;148.75;110.50;;;20.40;44.50;;;;;;4812709;54;21541;-24
2021/03/04 20:56:09;;;;;;;150.80;110.28;;;20.40;44.50;;;;;;4801910;54;21521;-24
2021/03/04 21:01:10;;;;;;;142.23;104.28;;;20.30;44.40;;;;;;4793879;58;21058;-22
2021/03/04 21:06:11;;;;;;;145.20;109.87;;;20.30;44.40;;;;;;4828389;54;21140;-21
2021/03/04 21:11:12;;;;;;;148.95;112.30;;;20.30;44.70;;;;;;4805615;54;21150;-26
2021/03/04 21:16:13;;;;;;;147.23;109.85;;;20.30;44.30;;;;;;4819083;54;21632;-24
2021/03/04 21:21:14;;;;;;;144.00;106.45;;;20.30;44.30;;;;;;4793852;58;21498;-23
2021/03/04 21:26:15;;;;;;;149.75;108.57;;;20.30;44.30;;;;;;4814028;54;21011;-24
2021/03/04 21:31:15;;;;;;;148.23;112.05;;;20.30;44.30;;;;;;4799513;54;21079;-24
2021/03/04 21:36:16;;;;;;;145.10;109.35;;;20.30;44.30;;;;;;4806847;54;21012;-26
2021/03/04 21:41:17;;;;;;;145.68;107.53;;;20.30;43.70;;;;;;4804999;54;21071;-23
2021/03/04 21:46:18;;;;;;;143.23;107.47;;;20.30;44.20;;;;;;4794537;58;21015;-24
2021/03/04 21:51:20;;;;;;;143.15;105.50;;;20.30;44.20;;;;;;4797147;54;21130;-24
2021/03/04 21:56:21;;;;;;;151.00;110.65;;;20.30;44.20;;;;;;4809564;54;21055;-23
2021/03/04 22:01:22;;;;;;;146.77;108.85;;;20.30;44.10;;;;;;4814730;54;21034;-24
2021/03/04 22:06:23;;;;;;;141.40;104.25;;;20.30;44.20;;;;;;4823639;54;21103;-25
2021/03/04 22:11:24;;;;;;;148.50;108.12;;;20.30;44.10;;;;;;4809904;54;21011;-24
2021/03/04 22:16:25;;;;;;;142.90;107.55;;;20.30;44.10;;;;;;4793143;58;21500;-24
2021/03/04 22:21:26;;;;;;;145.95;107.87;;;20.30;44.10;;;;;;4797688;54;21179;-24
2021/03/04 22:26:27;;;;;;;140.93;104.93;;;20.30;44.10;;;;;;4897139;54;21035;-24
2021/03/04 22:31:29;;;;;;;143.48;108.53;;;20.30;44.10;;;;;;4855072;54;21094;-23
2021/03/04 22:36:31;;;;;;;145.62;106.45;;;20.30;44.10;;;;;;4843220;54;20995;-26
2021/03/04 22:41:33;;;;;;;139.73;102.82;;;20.30;44.00;;;;;;4808449;54;21556;-22
2021/03/04 22:46:34;;;;;;;140.77;104.57;;;20.30;44.00;;;;;;4793501;58;21043;-22
2021/03/04 22:51:35;;;;;;;138.05;100.22;;;20.30;44.00;;;;;;4805836;54;21587;-22
2021/03/04 22:56:36;;;;;;;140.77;104.93;;;20.30;44.00;;;;;;4794699;54;21063;-26
2021/03/04 23:01:37;;;;;;;143.00;104.70;;;20.30;43.90;;;;;;4793304;58;21071;-23
2021/03/04 23:06:40;;;;;;;140.80;104.72;;;20.30;44.00;;;;;;4799292;54;22017;-27
2021/03/04 23:11:41;;;;;;;142.43;103.85;;;20.30;43.90;;;;;;4809880;54;21039;-24
2021/03/04 23:16:43;;;;;;;142.30;103.97;;;20.30;43.90;;;;;;4820498;54;21288;-26
2021/03/04 23:21:46;;;;;;;134.40;99.85;;;20.30;43.80;;;;;;4823461;54;21074;-24
2021/03/04 23:26:49;;;;;;;143.25;104.32;;;20.30;43.80;;;;;;4813609;54;21085;-23
2021/03/04 23:31:50;;;;;;;134.90;98.10;;;20.30;43.80;;;;;;4793459;58;21607;-21
2021/03/04 23:36:51;;;;;;;136.93;102.28;;;20.30;43.80;;;;;;4802934;54;21054;-23
2021/03/04 23:41:52;;;;;;;137.30;103.12;;;20.30;43.80;;;;;;4796113;54;21087;-22
2021/03/04 23:46:53;;;;;;;134.32;101.03;;;20.30;43.70;;;;;;4839895;54;21334;-23
2021/03/04 23:51:54;;;;;;;131.43;100.43;;;20.30;44.40;;;;;;4793497;58;21015;-24
2021/03/04 23:56:54;;;;;;;135.00;102.30;;;20.30;43.70;;;;;;4795977;54;21011;-24
